METAR stanice u blizini

 

LYBE - Beograd / Surčin, Srbija
Ažurirano: 13/12/2019 16:30
Vedro
Vedro
 Pravac vetra JI
Vetar: JI 17 km/h
Temperatura: 10°C
Osećaj hladnoće: 8°C
Tačka rose: 2°C
Vlažnost: 58%
Pritisak: 993 hPa
Pregled: Vedro
Vidljivost: greater than 10 km
2019/12/13 15:30 LYBE 131530Z 14009KT CAVOK 10/02 Q0993 NOSIG
LYBT - Beograd / Batajnica, Srbija
Ažurirano: 13/12/2019 16:30
Vedro
Vedro
 Pravac vetra IJI
Vetar: IJI 15 km/h
Temperatura: 8°C
Osećaj hladnoće: 5°C
Tačka rose: 2°C
Vlažnost: 66%
Pritisak: 993 hPa
Pregled: Vedro
Vidljivost: greater than 10 km
2019/12/13 15:30 LYBT 131530Z 11008KT CAVOK 08/02 Q0993 NOSIG
LYVR - Vršac, Srbija
Ažurirano: 13/12/2019 16:30
Vedro
Vedro
 Pravac vetra IJI
Vetar: IJI 44 km/h, Maks.: 70 km/h
Temperatura: 8°C
Osećaj hladnoće: 3°C
Tačka rose: 3°C
Vlažnost: 71%
Pritisak: 994 hPa
Pregled: Vedro
Vidljivost: greater than 10 km
2019/12/13 15:30 LYVR 131530Z 12024G38KT CAVOK 08/03 Q0994 NOSIG
 
LYKV - Lađevci, Srbija
Ažurirano: 13/12/2019 16:30
Vedro
Vedro
 Pravac vetra JI
Vetar: JI 17 km/h
Temperatura: 9°C
Osećaj hladnoće: 7°C
Tačka rose: 4°C
Vlažnost: 71%
Pritisak: 994 hPa
Pregled: Vedro
Vidljivost: greater than 10 km
2019/12/13 15:30 LYKV 131530Z 14009KT CAVOK 09/04 Q0994 NOSIG
LYNI - Niš, Srbija
Ažurirano: 13/12/2019 16:30
Few Clouds
Few Clouds
 Pravac vetra JJI
Vetar: JJI 7 km/h
Temperatura: 9°C
Osećaj hladnoće: 8°C
Tačka rose: 2°C
Vlažnost: 62%
Pritisak: 997 hPa
Oblaci: Few Clouds
Vidljivost: 10 km
Cloud details: Few Clouds 1433 m
2019/12/13 15:30 LYNI 131530Z 16004KT 9999 FEW047 09/02 Q0997 NOSIG
BKPR - Priština, Srbija
Ažurirano: 13/12/2019 16:30
Mostly Cloudy
Mostly Cloudy
 Pravac vetra varies
Vetar: varies 6 km/h
Temperatura: 7°C
Tačka rose: 2°C
Vlažnost: 71%
Pritisak: 997 hPa
Oblaci: Mostly Cloudy
Vidljivost: 10 km
Cloud details: Partly Cloudy 1524 m
Mostly Cloudy 6096 m
2019/12/13 15:30 BKPR 131530Z VRB03KT 9999 SCT050 BKN200 07/02 Q0997 NOSIG RMK 17010095
 
LHPP - Pecs / Pogany, Hungary
Ažurirano: 13/12/2019 16:15
Mist, Oblačno
Mist, Oblačno
 Pravac vetra I
Vetar: I 15 km/h
Temperatura: 3°C
Osećaj hladnoće: -1°C
Tačka rose: 3°C
Vlažnost: 100%
Pritisak: 991 hPa
Pregled: Mist
Oblaci: Oblačno
Vidljivost: 1 km
Cloud details: Oblačno 122 m
2019/12/13 15:15 LHPP 131515Z 10008KT 1100 BR OVC004 03/03 Q0991
LHUD - Szeged, Hungary
Ažurirano: 04/07/2019 01:45
NOT Current
Vedro
Vedro
 Pravac vetra S
Vetar: S 7 km/h
Temperatura: 18°C
Tačka rose: 13°C
Vlažnost: 73%
Pritisak: 1019 hPa
Pregled: Vedro
Vidljivost: greater than 10 km
2019/07/03 23:45 LHUD 032345Z 35004KT CAVOK 18/13 Q1019
LRTR - Timisoara, Romania
Ažurirano: 13/12/2019 16:30
Vedro
Vedro
 Pravac vetra JI
Vetar: JI 13 km/h
Temperatura: 7°C
Osećaj hladnoće: 5°C
Tačka rose: 4°C
Vlažnost: 81%
Pritisak: 994 hPa
Pregled: Vedro
Vidljivost: greater than 10 km
2019/12/13 15:30 LRTR 131530Z 14007KT CAVOK 07/04 Q0994
 
LRCV - Craiova, Romania
Ažurirano: 13/12/2019 16:30
Magla, Oblačno
Magla, Oblačno
 Pravac vetra I
Vetar: I 20 km/h
Temperatura: 5°C
Osećaj hladnoće: 1°C
Tačka rose: 5°C
Vlažnost: 100%
Pritisak: 999 hPa
Pregled: Magla
Oblaci: Oblačno
Vidljivost: 0 km
Cloud details: Oblačno 61 m
2019/12/13 15:30 LRCV 131530Z 09011KT 0400 R27/0600N FG VV002 05/05 Q0999 R27/29//95
LBSF - Sofia, Bulgaria
Ažurirano: 13/12/2019 16:30
Mostly Cloudy
Mostly Cloudy
 Pravac vetra I
Vetar: I 17 km/h
Temperatura: 8°C
Osećaj hladnoće: 5°C
Tačka rose: 3°C
Vlažnost: 71%
Pritisak: 999 hPa
Oblaci: Mostly Cloudy
Vidljivost: 10 km
Cloud details: Partly Cloudy 1463 m
Mostly Cloudy 1768 m
2019/12/13 15:30 LBSF 131530Z 10009KT 9999 SCT048 BKN058 08/03 Q0999 R09/29//95 NOSIG
LWSK - Skoplje, Makedonija
Ažurirano: 13/12/2019 17:00
Partly Cloudy
Partly Cloudy
 Pravac vetra calm
Vetar: Tišina
Temperatura: 9°C
Tačka rose: 6°C
Vlažnost: 82%
Pritisak: 999 hPa
Oblaci: Partly Cloudy
Vidljivost: 10 km
Cloud details: Few Clouds 914 m
Partly Cloudy 2438 m
2019/12/13 16:00 LWSK 131600Z 00000KT 9999 FEW030 SCT080 09/06 Q0999 NOSIG
 
LYPG - Podgorica, Crna Gora
Ažurirano: 13/12/2019 16:30
Shallow fog, Few clouds
Shallow fog, Few clouds
 Pravac vetra varies
Vetar: varies 2 km/h
Temperatura: 8°C
Tačka rose: 7°C
Vlažnost: 93%
Pritisak: 998 hPa
Pregled: Shallow Fog
Oblaci: Few Clouds
Vidljivost: 6 km
Cloud details: Few Clouds 792 m
2019/12/13 15:30 LYPG 131530Z VRB01KT 6000 2000S MIFG FEW026 08/07 Q0998 TEMPO 2000 BR
LQSA - Sarajevo, Bosna i Hercegovina
Ažurirano: 13/12/2019 16:30
Partly Cloudy
Partly Cloudy
 Pravac vetra JJI
Vetar: JJI 33 km/h
Temperatura: 8°C
Osećaj hladnoće: 3°C
Tačka rose: 1°C
Vlažnost: 62%
Pritisak: 991 hPa
Oblaci: Partly Cloudy
Vidljivost: 10 km
Cloud details: Partly Cloudy 1524 m
2019/12/13 15:30 LQSA 131530Z 15018KT 120V180 9999 SCT050 08/01 Q0991 WS ALL RWY NOSIG
LDOS - Osijek, Hrvatksa
Ažurirano: 13/12/2019 16:30
Partly Cloudy
Partly Cloudy
 Pravac vetra I
Vetar: I 15 km/h
Temperatura: 5°C
Osećaj hladnoće: 2°C
Tačka rose: 4°C
Vlažnost: 93%
Pritisak: 991 hPa
Oblaci: Partly Cloudy
Vidljivost: 6 km
2019/12/13 15:30 LDOS 131530Z 09008KT 6000 NSC 05/04 Q0991